Time;durP1;ratioP1;P1;durP2;ratioP2;P2;SDS_P1;SDS_P2;PMS_P1;PMS_P2;Temp;Humidity;BMP_temperature;BMP_pressure;BME280_temperature;BME280_humidity;BME280_pressure;Samples;Min_cycle;Max_cycle;Signal;HPM_P1;HPM_P2
2022/04/09 00:00:32;;;;;;;8.38;3.10;;;4.70;99.90;;;;;;5072070;28;20051;-72
2022/04/09 00:02:59;;;;;;;13.73;2.53;;;4.70;99.90;;;;;;5054454;28;20055;-71
2022/04/09 00:05:25;;;;;;;7.10;2.42;;;4.70;99.90;;;;;;5054314;28;20056;-71
2022/04/09 00:07:51;;;;;;;12.40;2.17;;;4.60;99.90;;;;;;5072343;28;20547;-72
2022/04/09 00:10:17;;;;;;;4.75;1.77;;;4.60;99.90;;;;;;5053814;28;20036;-72
2022/04/09 00:12:47;;;;;;;5.35;1.73;;;4.50;99.90;;;;;;5054209;28;20045;-71
2022/04/09 00:15:13;;;;;;;10.32;2.58;;;4.50;99.90;;;;;;5072190;28;20076;-71
2022/04/09 00:17:44;;;;;;;6.93;1.88;;;4.50;99.90;;;;;;5072243;28;20115;-72
2022/04/09 00:20:12;;;;;;;6.22;2.28;;;4.40;99.90;;;;;;5071866;28;20397;-72
2022/04/09 00:22:39;;;;;;;10.60;3.00;;;4.40;99.90;;;;;;5071901;28;20502;-72
2022/04/09 00:25:06;;;;;;;8.98;2.60;;;4.40;99.90;;;;;;5071764;28;20051;-72
2022/04/09 00:27:32;;;;;;;13.00;2.35;;;4.40;99.90;;;;;;5053834;28;20040;-73
2022/04/09 00:29:58;;;;;;;9.88;2.08;;;4.40;99.90;;;;;;5071622;28;20059;-73
2022/04/09 00:32:23;;;;;;;8.88;2.25;;;4.40;99.90;;;;;;5071939;28;20067;-73
2022/04/09 00:34:49;;;;;;;8.15;2.03;;;4.50;99.90;;;;;;5053895;28;20414;-73
2022/04/09 00:37:15;;;;;;;12.85;2.75;;;4.50;99.90;;;;;;5054152;28;20144;-73
2022/04/09 00:39:41;;;;;;;14.60;2.83;;;4.50;99.90;;;;;;5053944;28;20044;-73
2022/04/09 00:42:13;;;;;;;10.48;4.15;;;4.50;99.90;;;;;;5053801;28;20076;-74
2022/04/09 00:44:38;;;;;;;15.65;3.42;;;4.60;99.90;;;;;;5053903;28;20044;-73
2022/04/09 00:47:04;;;;;;;11.48;2.40;;;4.60;99.90;;;;;;5053875;28;20044;-73
2022/04/09 00:49:30;;;;;;;9.90;2.10;;;4.60;99.90;;;;;;5053714;28;20038;-73
2022/04/09 00:52:00;;;;;;;10.93;3.00;;;4.60;99.90;;;;;;5053396;28;20045;-73
2022/04/09 00:54:29;;;;;;;12.00;2.58;;;4.60;99.90;;;;;;5053997;28;20185;-74
2022/04/09 00:57:01;;;;;;;8.88;2.80;;;4.60;99.90;;;;;;5053822;28;20402;-73
2022/04/09 00:59:29;;;;;;;12.13;2.70;;;4.60;99.90;;;;;;5053594;28;20127;-74
2022/04/09 01:01:55;;;;;;;8.55;2.40;;;4.50;99.90;;;;;;5053325;28;20097;-74
2022/04/09 01:04:21;;;;;;;8.07;2.72;;;4.50;99.90;;;;;;5053906;28;20456;-74
2022/04/09 01:06:47;;;;;;;11.13;2.88;;;4.40;99.90;;;;;;5053566;28;20094;-74
2022/04/09 01:09:13;;;;;;;11.10;2.38;;;4.40;99.90;;;;;;5037340;28;20524;-74
2022/04/09 01:11:40;;;;;;;6.90;2.17;;;4.40;99.90;;;;;;5071303;28;20055;-72
2022/04/09 01:14:06;;;;;;;9.60;2.38;;;4.40;99.90;;;;;;5071642;28;20043;-72
2022/04/09 01:16:32;;;;;;;9.32;2.17;;;4.40;99.90;;;;;;5053654;28;20036;-72
2022/04/09 01:18:59;;;;;;;6.57;2.15;;;4.40;99.90;;;;;;5053529;28;20064;-71
2022/04/09 01:21:26;;;;;;;5.47;2.90;;;4.30;99.90;;;;;;5053093;28;20033;-72
2022/04/09 01:23:52;;;;;;;7.80;2.38;;;4.30;99.90;;;;;;5036757;28;20041;-72
2022/04/09 01:26:18;;;;;;;11.30;4.00;;;4.30;99.90;;;;;;5036771;28;20549;-75
2022/04/09 01:28:44;;;;;;;6.78;2.40;;;4.40;99.90;;;;;;5053620;28;20043;-73
2022/04/09 01:31:10;;;;;;;9.60;2.05;;;4.40;99.90;;;;;;5071218;28;20049;-73
2022/04/09 01:33:36;;;;;;;7.00;2.13;;;4.40;99.90;;;;;;5071683;28;20044;-73
2022/04/09 01:36:02;;;;;;;7.85;1.77;;;4.40;99.90;;;;;;5071331;28;20037;-73
2022/04/09 01:38:28;;;;;;;11.63;4.28;;;4.40;99.90;;;;;;5071477;28;20067;-74
2022/04/09 01:40:54;;;;;;;9.40;2.55;;;4.30;99.90;;;;;;5052965;28;20048;-74
2022/04/09 01:43:20;;;;;;;4.40;1.92;;;4.30;99.90;;;;;;5071222;28;20072;-73
2022/04/09 01:45:46;;;;;;;5.20;2.00;;;4.30;99.90;;;;;;5053227;28;20090;-74
2022/04/09 01:48:11;;;;;;;7.93;2.22;;;4.30;99.90;;;;;;5053182;28;20044;-74
2022/04/09 01:50:37;;;;;;;3.67;1.40;;;4.20;99.90;;;;;;5052562;28;20160;-74
2022/04/09 01:53:02;;;;;;;7.07;1.77;;;4.20;99.90;;;;;;5053274;28;20462;-74
2022/04/09 01:55:28;;;;;;;14.30;2.60;;;4.20;99.90;;;;;;5053145;28;20494;-73
2022/04/09 01:57:54;;;;;;;10.48;2.10;;;4.20;99.90;;;;;;5053073;28;20426;-74
2022/04/09 02:00:19;;;;;;;8.95;2.20;;;4.20;99.90;;;;;;5052750;28;20058;-73
2022/04/09 02:02:45;;;;;;;6.43;2.55;;;4.20;99.90;;;;;;5052947;28;20040;-74
2022/04/09 02:05:12;;;;;;;16.33;3.00;;;4.20;99.90;;;;;;5052983;28;20044;-74
2022/04/09 02:07:39;;;;;;;3.75;1.83;;;4.10;99.90;;;;;;5053030;28;20127;-73
2022/04/09 02:10:05;;;;;;;8.75;2.25;;;4.10;99.90;;;;;;5052539;28;20044;-73
2022/04/09 02:12:35;;;;;;;5.10;1.77;;;4.10;99.90;;;;;;5054032;28;20098;-74
2022/04/09 02:15:06;;;;;;;8.75;1.80;;;4.20;99.90;;;;;;5039838;28;20062;-73
2022/04/09 02:17:31;;;;;;;8.77;1.92;;;4.10;99.90;;;;;;5074307;28;20051;-74
2022/04/09 02:19:57;;;;;;;8.68;2.40;;;4.00;99.90;;;;;;5056028;28;20044;-73
2022/04/09 02:22:23;;;;;;;8.85;2.35;;;4.00;99.90;;;;;;5039992;28;20124;-74
2022/04/09 02:24:52;;;;;;;7.15;1.73;;;4.00;99.90;;;;;;5056481;28;20084;-73
2022/04/09 02:27:18;;;;;;;5.45;1.83;;;4.00;99.90;;;;;;5056256;28;20032;-74
2022/04/09 02:29:45;;;;;;;8.95;2.03;;;4.00;99.90;;;;;;5039520;28;20036;-74
2022/04/09 02:32:11;;;;;;;6.45;1.83;;;3.90;99.90;;;;;;5056083;28;20032;-73
2022/04/09 02:34:37;;;;;;;12.05;2.10;;;3.90;99.90;;;;;;5056128;28;20073;-73
2022/04/09 02:37:05;;;;;;;11.05;2.25;;;3.90;99.90;;;;;;5056059;28;20037;-74
2022/04/09 02:39:30;;;;;;;8.95;1.60;;;3.90;99.90;;;;;;5055907;28;20044;-74
2022/04/09 02:41:56;;;;;;;7.85;2.00;;;3.90;99.90;;;;;;5055973;28;20467;-74
2022/04/09 02:44:23;;;;;;;7.50;2.03;;;3.90;99.90;;;;;;5056236;28;20505;-74
2022/04/09 02:46:48;;;;;;;15.85;2.25;;;3.90;99.90;;;;;;5056085;28;20165;-74
2022/04/09 02:49:14;;;;;;;6.65;2.05;;;3.90;99.90;;;;;;5055738;28;20072;-73
2022/04/09 02:51:40;;;;;;;7.53;2.20;;;3.90;99.90;;;;;;5055423;28;20040;-74
2022/04/09 02:54:06;;;;;;;9.95;2.35;;;4.00;99.90;;;;;;5056000;28;20051;-73
2022/04/09 02:56:31;;;;;;;10.18;2.90;;;4.00;99.90;;;;;;5039111;28;20040;-72
2022/04/09 02:58:57;;;;;;;8.73;2.85;;;4.00;99.90;;;;;;5055934;28;20540;-71
2022/04/09 03:01:24;;;;;;;9.25;1.88;;;4.00;99.90;;;;;;5055241;28;20059;-72
2022/04/09 03:03:50;;;;;;;8.15;1.40;;;4.10;99.90;;;;;;5039022;28;20040;-71
2022/04/09 03:06:16;;;;;;;3.05;1.73;;;4.10;99.90;;;;;;5055526;28;20433;-71
2022/04/09 03:08:41;;;;;;;7.03;1.50;;;4.00;99.90;;;;;;5055505;28;20070;-71
2022/04/09 03:11:07;;;;;;;4.78;1.52;;;4.10;99.90;;;;;;5055014;28;20036;-74
2022/04/09 03:13:33;;;;;;;4.55;1.60;;;4.00;99.90;;;;;;5055361;28;20041;-74
2022/04/09 03:15:59;;;;;;;14.68;2.78;;;4.00;99.90;;;;;;5055294;28;20040;-74
2022/04/09 03:18:24;;;;;;;7.88;1.60;;;4.00;99.90;;;;;;5073428;28;20036;-74
2022/04/09 03:20:50;;;;;;;6.72;1.83;;;4.00;99.90;;;;;;5054907;28;20047;-74
2022/04/09 03:23:15;;;;;;;11.65;3.45;;;4.00;99.90;;;;;;5054684;28;20040;-74
2022/04/09 03:25:41;;;;;;;10.60;1.90;;;3.90;99.90;;;;;;5054873;28;20037;-73
2022/04/09 03:28:06;;;;;;;9.65;1.75;;;3.90;99.90;;;;;;5055423;28;20045;-73
2022/04/09 03:30:32;;;;;;;9.88;2.40;;;3.90;99.90;;;;;;5052821;28;20036;-73
2022/04/09 03:32:58;;;;;;;9.20;2.45;;;3.90;99.90;;;;;;5054692;28;20032;-73
2022/04/09 03:35:24;;;;;;;13.30;2.25;;;3.90;99.90;;;;;;5055212;28;20040;-73
2022/04/09 03:37:49;;;;;;;9.32;2.45;;;3.90;99.90;;;;;;5072820;28;20040;-73
2022/04/09 03:40:16;;;;;;;10.25;2.33;;;3.90;99.90;;;;;;5072278;28;20159;-73
2022/04/09 03:42:41;;;;;;;13.65;2.45;;;3.90;99.90;;;;;;5072841;28;20044;-73
2022/04/09 03:45:07;;;;;;;9.75;2.10;;;3.90;99.90;;;;;;5055042;28;20055;-73
2022/04/09 03:47:33;;;;;;;7.22;2.33;;;3.90;99.90;;;;;;5054898;28;20106;-73
2022/04/09 03:50:04;;;;;;;9.95;2.72;;;4.00;99.90;;;;;;5072092;28;20048;-73
2022/04/09 03:52:29;;;;;;;6.22;1.75;;;4.00;99.90;;;;;;5072663;28;20041;-74
2022/04/09 03:54:55;;;;;;;11.02;3.10;;;4.00;99.90;;;;;;5072518;28;20059;-74
2022/04/09 03:57:20;;;;;;;12.43;2.92;;;3.90;99.90;;;;;;5072468;28;20041;-74
2022/04/09 03:59:46;;;;;;;8.52;1.98;;;3.90;99.90;;;;;;5054412;28;20094;-73
2022/04/09 04:02:12;;;;;;;7.85;2.63;;;3.90;99.90;;;;;;5037580;28;20567;-74
2022/04/09 04:04:37;;;;;;;12.20;4.53;;;3.90;99.90;;;;;;5072283;28;20072;-72
2022/04/09 04:07:04;;;;;;;10.13;3.00;;;3.90;99.90;;;;;;5054389;28;20044;-74
2022/04/09 04:09:30;;;;;;;7.57;2.10;;;3.80;99.90;;;;;;5054327;28;20098;-74
2022/04/09 04:11:55;;;;;;;8.70;2.00;;;3.80;99.90;;;;;;5053952;28;20046;-74
2022/04/09 04:14:21;;;;;;;10.50;1.80;;;3.70;99.90;;;;;;5054246;28;20076;-74
2022/04/09 04:16:46;;;;;;;8.10;1.75;;;3.80;99.90;;;;;;5037946;28;20466;-73
2022/04/09 04:19:12;;;;;;;4.65;1.92;;;3.70;99.90;;;;;;5072227;28;20032;-73
2022/04/09 04:21:38;;;;;;;4.63;1.70;;;3.70;99.90;;;;;;5054095;28;20048;-74
2022/04/09 04:24:04;;;;;;;7.00;1.90;;;3.70;99.90;;;;;;5054059;28;20056;-74
2022/04/09 04:26:30;;;;;;;8.90;2.05;;;3.70;99.90;;;;;;5054335;28;20458;-73
2022/04/09 04:28:55;;;;;;;7.13;1.73;;;3.80;99.90;;;;;;5053971;28;20129;-73
2022/04/09 04:31:21;;;;;;;10.43;2.63;;;3.80;99.90;;;;;;5071773;28;20040;-73
2022/04/09 04:33:47;;;;;;;8.60;2.05;;;3.80;99.90;;;;;;5054224;28;20040;-73
2022/04/09 04:36:13;;;;;;;10.93;2.22;;;3.80;99.90;;;;;;5071503;28;20494;-73
2022/04/09 04:38:38;;;;;;;6.45;2.25;;;3.90;99.90;;;;;;5071985;28;20441;-72
2022/04/09 04:41:07;;;;;;;11.05;1.95;;;3.90;99.90;;;;;;5072238;28;20044;-73
2022/04/09 04:43:33;;;;;;;10.73;1.88;;;3.90;99.90;;;;;;5071772;28;20394;-73
2022/04/09 04:45:59;;;;;;;11.02;2.33;;;3.80;99.90;;;;;;5071802;28;20102;-74
2022/04/09 04:48:25;;;;;;;8.55;2.20;;;3.90;99.90;;;;;;5053839;28;20521;-72
2022/04/09 04:50:50;;;;;;;8.63;1.95;;;3.80;99.90;;;;;;5036528;28;20033;-73
2022/04/09 04:53:16;;;;;;;6.35;1.77;;;3.80;99.90;;;;;;5053511;28;20048;-73
2022/04/09 04:55:42;;;;;;;5.70;1.60;;;3.70;99.90;;;;;;5037262;28;20079;-73
2022/04/09 04:58:07;;;;;;;12.50;2.13;;;3.70;99.90;;;;;;5071495;28;20125;-73
2022/04/09 05:00:33;;;;;;;5.68;1.35;;;3.70;99.90;;;;;;5053522;28;20079;-73
2022/04/09 05:02:59;;;;;;;3.70;1.73;;;3.70;99.90;;;;;;5053865;28;20056;-73
2022/04/09 05:05:25;;;;;;;8.02;2.50;;;3.70;99.90;;;;;;5053872;28;20037;-73
2022/04/09 05:07:51;;;;;;;6.68;2.08;;;3.70;99.90;;;;;;5053439;28;20052;-74
2022/04/09 05:10:19;;;;;;;8.55;2.20;;;3.70;99.90;;;;;;5053039;28;20490;-73
2022/04/09 05:12:46;;;;;;;10.95;2.08;;;3.70;99.90;;;;;;5053401;28;20055;-73
2022/04/09 05:15:14;;;;;;;12.52;2.58;;;3.70;99.90;;;;;;5053460;28;20048;-73
2022/04/09 05:17:40;;;;;;;11.07;2.45;;;3.70;99.90;;;;;;5053620;28;20043;-74
2022/04/09 05:20:08;;;;;;;8.82;2.90;;;3.70;99.90;;;;;;5053034;28;20052;-73
2022/04/09 05:22:33;;;;;;;5.35;1.73;;;3.80;99.90;;;;;;5071197;28;20040;-72
2022/04/09 05:24:59;;;;;;;10.90;1.80;;;3.90;99.90;;;;;;5071196;28;20048;-74
2022/04/09 05:27:25;;;;;;;5.95;2.03;;;4.00;99.90;;;;;;5036779;28;20071;-73
2022/04/09 05:29:51;;;;;;;11.48;1.55;;;4.10;99.90;;;;;;5053113;28;20036;-73
2022/04/09 05:32:17;;;;;;;4.25;1.55;;;4.20;99.90;;;;;;5071037;28;20052;-73
2022/04/09 05:34:43;;;;;;;8.10;2.50;;;4.30;99.90;;;;;;5053256;28;20450;-74
2022/04/09 05:37:09;;;;;;;10.60;2.00;;;4.40;99.90;;;;;;5053195;28;20086;-74
2022/04/09 05:39:35;;;;;;;7.20;3.03;;;4.60;99.90;;;;;;5053083;28;20033;-74
2022/04/09 05:42:01;;;;;;;9.10;1.65;;;4.60;99.90;;;;;;5052880;28;20094;-73
2022/04/09 05:44:26;;;;;;;7.60;1.70;;;4.60;99.90;;;;;;5071156;28;20045;-73
2022/04/09 05:46:52;;;;;;;9.30;1.67;;;4.50;99.90;;;;;;5053337;28;20043;-73
2022/04/09 05:49:18;;;;;;;6.43;1.50;;;4.50;99.90;;;;;;5056887;28;20448;-73
2022/04/09 05:51:44;;;;;;;4.60;1.50;;;4.50;99.90;;;;;;5073315;23;20100;-68
2022/04/09 05:54:10;;;;;;;9.10;1.70;;;4.50;99.90;;;;;;5054794;28;20037;-68
2022/04/09 05:56:36;;;;;;;5.43;1.30;;;4.50;99.90;;;;;;5055033;28;20044;-68
2022/04/09 05:59:02;;;;;;;11.60;2.10;;;4.50;99.90;;;;;;5052235;28;20033;-69
2022/04/09 06:01:28;;;;;;;6.93;1.85;;;4.50;99.90;;;;;;5053167;28;20567;-69
2022/04/09 06:03:55;;;;;;;7.40;1.10;;;4.40;99.90;;;;;;5054783;28;20064;-69
2022/04/09 06:06:21;;;;;;;6.72;1.65;;;4.50;99.90;;;;;;5054658;28;20037;-69
2022/04/09 06:08:48;;;;;;;10.18;1.75;;;4.50;99.90;;;;;;5055103;28;20033;-69
2022/04/09 06:11:14;;;;;;;8.95;2.10;;;4.40;99.90;;;;;;5053138;28;20041;-70
2022/04/09 06:13:39;;;;;;;6.30;1.50;;;4.40;99.90;;;;;;5054663;28;20075;-69
2022/04/09 06:16:08;;;;;;;14.57;2.35;;;4.60;99.90;;;;;;5054370;28;20491;-69
2022/04/09 06:18:37;;;;;;;4.18;1.85;;;4.80;99.90;;;;;;5054423;28;20067;-69
2022/04/09 06:21:07;;;;;;;11.02;2.00;;;5.10;99.90;;;;;;5053949;28;20048;-69
2022/04/09 06:23:32;;;;;;;8.55;1.42;;;5.40;99.90;;;;;;5054474;28;20056;-69
2022/04/09 06:25:58;;;;;;;6.40;2.38;;;5.70;99.90;;;;;;5054317;28;20045;-69
2022/04/09 06:28:24;;;;;;;9.70;1.95;;;5.90;99.90;;;;;;5054316;28;20071;-69
2022/04/09 06:30:50;;;;;;;4.05;1.38;;;5.70;99.90;;;;;;5052202;28;20041;-69
2022/04/09 06:33:16;;;;;;;8.23;2.10;;;5.50;99.90;;;;;;5053968;28;20127;-69
2022/04/09 06:35:41;;;;;;;9.75;1.92;;;5.30;99.90;;;;;;5053664;28;20037;-69
2022/04/09 06:38:07;;;;;;;10.25;2.40;;;5.10;99.90;;;;;;5054126;28;20033;-69
2022/04/09 06:40:32;;;;;;;6.63;1.58;;;5.10;99.90;;;;;;5053811;28;20051;-69
2022/04/09 06:42:58;;;;;;;6.80;2.13;;;5.00;99.90;;;;;;5054148;28;20044;-69
2022/04/09 06:45:24;;;;;;;10.65;2.72;;;5.10;99.90;;;;;;5053985;28;20049;-69
2022/04/09 06:47:50;;;;;;;7.50;2.63;;;5.30;99.90;;;;;;5053790;28;20044;-69
2022/04/09 06:50:16;;;;;;;9.73;3.00;;;5.50;99.90;;;;;;5051932;28;20530;-69
2022/04/09 06:52:41;;;;;;;13.25;3.35;;;5.90;99.90;;;;;;5053945;28;20040;-69
2022/04/09 06:55:11;;;;;;;9.80;2.75;;;6.40;99.90;;;;;;5053813;28;20044;-69
2022/04/09 06:57:41;;;;;;;18.13;2.72;;;6.60;99.90;;;;;;5053565;28;20045;-69
2022/04/09 07:00:13;;;;;;;12.45;2.83;;;6.40;99.90;;;;;;5053318;28;20094;-69
2022/04/09 07:02:39;;;;;;;14.27;2.60;;;6.20;99.90;;;;;;5052399;28;20513;-69
2022/04/09 07:05:06;;;;;;;9.93;2.72;;;6.00;99.90;;;;;;5053510;28;20132;-69
2022/04/09 07:07:31;;;;;;;10.90;2.45;;;5.90;99.90;;;;;;5052175;28;20131;-69
2022/04/09 07:10:05;;;;;;;17.75;2.60;;;5.80;99.90;;;;;;5053077;28;20179;-69
2022/04/09 07:12:30;;;;;;;11.88;2.45;;;5.70;99.90;;;;;;5053359;28;20114;-69
2022/04/09 07:14:56;;;;;;;10.93;2.30;;;5.60;99.90;;;;;;5053377;28;20068;-68
2022/04/09 07:17:22;;;;;;;13.15;2.83;;;5.60;99.90;;;;;;5051642;28;20037;-68
2022/04/09 07:19:47;;;;;;;13.73;2.38;;;6.10;99.90;;;;;;5051570;28;20048;-68
2022/04/09 07:22:13;;;;;;;9.30;2.40;;;6.60;99.90;;;;;;5052751;28;20545;-68
2022/04/09 07:24:40;;;;;;;10.07;3.50;;;6.80;99.90;;;;;;5052666;28;20127;-68
2022/04/09 07:27:06;;;;;;;14.90;2.42;;;7.20;99.90;;;;;;5051473;28;20049;-68
2022/04/09 07:29:31;;;;;;;8.02;2.00;;;7.00;99.90;;;;;;5051491;28;20368;-68
2022/04/09 07:31:57;;;;;;;9.57;1.80;;;6.70;99.90;;;;;;5050433;28;20032;-68
2022/04/09 07:34:23;;;;;;;9.90;2.30;;;6.60;99.90;;;;;;5052275;28;20057;-68
2022/04/09 07:36:48;;;;;;;10.85;2.50;;;6.70;99.90;;;;;;5052556;28;20390;-68
2022/04/09 07:39:14;;;;;;;8.90;2.47;;;7.00;99.90;;;;;;5052859;28;20063;-68
2022/04/09 07:41:39;;;;;;;10.23;2.05;;;7.20;99.90;;;;;;5052537;28;20120;-68
2022/04/09 07:44:05;;;;;;;12.98;1.90;;;7.30;99.90;;;;;;5052615;28;20132;-68
2022/04/09 07:46:31;;;;;;;8.25;2.33;;;7.60;99.90;;;;;;5052646;28;20037;-68
2022/04/09 07:48:57;;;;;;;6.70;1.80;;;7.80;99.90;;;;;;5052689;28;20060;-68
2022/04/09 07:51:22;;;;;;;11.43;1.85;;;7.90;99.90;;;;;;5052013;28;20541;-68
2022/04/09 07:53:48;;;;;;;4.55;1.60;;;8.10;99.90;;;;;;5052743;28;20037;-68
2022/04/09 07:56:13;;;;;;;9.48;1.90;;;8.30;99.90;;;;;;5052579;28;20029;-68
2022/04/09 07:58:39;;;;;;;11.27;1.92;;;8.00;99.90;;;;;;5052567;28;20167;-68
2022/04/09 08:01:05;;;;;;;14.75;2.63;;;8.00;99.90;;;;;;5052103;28;20569;-68
2022/04/09 08:03:31;;;;;;;12.82;2.15;;;8.20;99.90;;;;;;5052437;28;20063;-68
2022/04/09 08:05:57;;;;;;;10.18;3.03;;;8.40;99.90;;;;;;5052652;28;20071;-71
2022/04/09 08:08:22;;;;;;;6.90;1.85;;;8.60;99.90;;;;;;5052638;28;20041;-71
2022/04/09 08:10:48;;;;;;;11.60;2.88;;;8.40;99.90;;;;;;5051296;28;20044;-71
2022/04/09 08:13:13;;;;;;;13.32;2.45;;;8.70;99.90;;;;;;5052474;28;20029;-71
2022/04/09 08:15:39;;;;;;;10.15;1.70;;;9.10;99.90;;;;;;5052217;28;20563;-71
2022/04/09 08:18:09;;;;;;;11.30;1.83;;;9.10;99.90;;;;;;5051707;28;20452;-71
2022/04/09 08:20:36;;;;;;;10.02;1.63;;;9.10;99.90;;;;;;5052005;28;20036;-71
2022/04/09 08:23:02;;;;;;;10.23;1.98;;;9.00;99.90;;;;;;5052287;28;20045;-69
2022/04/09 08:25:27;;;;;;;9.30;1.75;;;9.30;99.90;;;;;;5051841;28;20048;-69
2022/04/09 08:27:53;;;;;;;12.55;1.63;;;9.40;99.90;;;;;;5051903;28;20568;-68
2022/04/09 08:30:21;;;;;;;12.93;2.20;;;9.50;99.90;;;;;;5050257;28;20716;-71
2022/04/09 08:32:52;;;;;;;9.00;2.42;;;9.20;99.90;;;;;;5052019;28;20051;-71
2022/04/09 08:35:18;;;;;;;7.60;2.10;;;8.70;99.90;;;;;;5051599;28;20049;-68
2022/04/09 08:37:57;;;;;;;14.38;2.70;;;8.50;99.90;;;;;;5051724;28;20043;-68
2022/04/09 08:40:24;;;;;;;9.05;1.80;;;8.80;99.90;;;;;;5051402;28;20041;-68
2022/04/09 08:42:50;;;;;;;10.52;1.90;;;9.30;99.90;;;;;;5050277;28;20585;-68
2022/04/09 08:45:16;;;;;;;11.30;1.83;;;9.60;99.90;;;;;;5050554;28;20116;-69
2022/04/09 08:47:43;;;;;;;10.77;2.90;;;9.60;99.90;;;;;;5051683;28;20040;-68
2022/04/09 08:50:13;;;;;;;10.15;3.22;;;9.60;99.90;;;;;;5051263;28;20040;-70
2022/04/09 08:52:43;;;;;;;7.00;1.90;;;9.40;99.90;;;;;;5051759;28;20045;-71
2022/04/09 08:55:12;;;;;;;9.50;2.30;;;8.90;99.90;;;;;;5051702;28;20039;-71
2022/04/09 08:57:38;;;;;;;7.32;1.92;;;9.20;99.90;;;;;;5051546;28;20072;-71
2022/04/09 09:00:13;;;;;;;9.18;1.90;;;9.40;99.90;;;;;;5051496;28;20084;-71
2022/04/09 09:02:51;;;;;;;9.63;1.75;;;9.90;99.90;;;;;;5051287;28;20213;-71
2022/04/09 09:05:30;;;;;;;11.70;2.22;;;9.60;99.90;;;;;;5051151;28;20114;-69
2022/04/09 09:07:56;;;;;;;8.15;1.60;;;9.30;99.90;;;;;;5049081;28;20037;-71
2022/04/09 09:10:22;;;;;;;7.20;2.75;;;9.10;99.90;;;;;;5050552;28;20503;-71
2022/04/09 09:13:05;;;;;;;6.18;1.83;;;8.80;99.90;;;;;;5050347;28;20494;-71
2022/04/09 09:15:46;;;;;;;4.93;1.10;;;8.20;99.90;;;;;;5051240;28;20146;-70
2022/04/09 09:18:22;;;;;;;6.45;1.08;;;7.20;99.90;;;;;;5048848;28;20056;-70
2022/04/09 09:20:53;;;;;;;4.63;0.98;;;6.80;99.90;;;;;;5051309;28;20094;-71
2022/04/09 09:23:32;;;;;;;6.80;0.90;;;6.60;99.90;;;;;;5055615;28;20036;-71
2022/04/09 09:26:00;;;;;;;9.40;1.13;;;6.50;99.90;;;;;;5054393;28;20433;-70
2022/04/09 09:28:30;;;;;;;2.05;0.98;;;6.50;99.90;;;;;;5054761;28;20044;-70
2022/04/09 09:30:57;;;;;;;3.75;0.77;;;6.90;99.90;;;;;;5054844;28;20080;-70
2022/04/09 09:33:23;;;;;;;1.52;0.60;;;7.00;99.90;;;;;;5055232;28;20033;-70
2022/04/09 09:36:01;;;;;;;1.83;0.70;;;7.30;99.90;;;;;;5053884;28;20045;-70
2022/04/09 09:38:29;;;;;;;3.33;0.40;;;7.60;99.90;;;;;;5055098;28;20048;-70
2022/04/09 09:40:56;;;;;;;5.82;1.02;;;7.80;99.90;;;;;;5053415;28;20521;-70
2022/04/09 09:43:23;;;;;;;2.72;0.80;;;7.90;99.90;;;;;;5055004;28;20060;-70
2022/04/09 09:45:51;;;;;;;4.93;1.20;;;8.10;99.90;;;;;;5053760;28;20114;-70
2022/04/09 09:48:25;;;;;;;5.47;1.08;;;8.30;99.90;;;;;;5052513;28;20049;-70
2022/04/09 09:50:53;;;;;;;7.70;1.20;;;8.40;99.90;;;;;;5052939;28;20532;-70
2022/04/09 09:53:33;;;;;;;8.35;1.50;;;8.50;99.90;;;;;;5052203;28;20102;-70
2022/04/09 09:56:03;;;;;;;9.85;1.55;;;8.60;99.90;;;;;;5052042;28;20037;-70
2022/04/09 09:58:31;;;;;;;8.48;1.65;;;8.80;99.90;;;;;;5055039;28;20114;-70
2022/04/09 10:00:57;;;;;;;8.80;2.00;;;9.00;99.90;;;;;;5052071;28;20040;-70
2022/04/09 10:03:24;;;;;;;6.55;1.63;;;8.80;99.90;;;;;;5054403;28;20502;-70
2022/04/09 10:05:50;;;;;;;4.75;1.63;;;8.40;99.90;;;;;;5052824;28;20045;-70
2022/04/09 10:08:17;;;;;;;5.32;1.48;;;7.80;99.90;;;;;;5054152;28;20033;-70
2022/04/09 10:10:48;;;;;;;6.15;2.25;;;7.50;99.90;;;;;;5052424;28;20094;-70
2022/04/09 10:13:24;;;;;;;5.10;1.05;;;7.30;99.90;;;;;;5050015;28;20398;-70
2022/04/09 10:15:51;;;;;;;6.65;2.08;;;7.00;99.90;;;;;;5054124;28;20385;-70
2022/04/09 10:18:23;;;;;;;3.50;1.05;;;7.00;99.90;;;;;;5053342;28;20037;-70
2022/04/09 10:20:56;;;;;;;3.53;0.68;;;7.20;99.90;;;;;;5051980;28;20170;-70
2022/04/09 10:23:23;;;;;;;3.58;0.90;;;7.50;99.90;;;;;;5050847;28;20459;-70
2022/04/09 10:25:53;;;;;;;1.55;0.40;;;7.70;99.90;;;;;;5054419;28;20060;-70
2022/04/09 10:28:36;;;;;;;3.28;0.57;;;7.90;99.90;;;;;;5054324;28;20029;-70
2022/04/09 10:31:03;;;;;;;1.92;0.38;;;8.00;99.90;;;;;;5053783;28;20047;-70
2022/04/09 10:33:33;;;;;;;4.63;0.73;;;7.90;99.90;;;;;;5053379;28;20125;-70
2022/04/09 10:36:02;;;;;;;1.83;0.55;;;8.10;99.90;;;;;;5052790;28;20069;-70
2022/04/09 10:38:28;;;;;;;2.85;0.40;;;8.10;99.90;;;;;;5053943;28;20033;-70
2022/04/09 10:40:55;;;;;;;1.02;0.50;;;8.20;99.90;;;;;;5053759;28;20076;-70
2022/04/09 10:43:20;;;;;;;3.90;0.90;;;8.10;99.90;;;;;;5053999;28;20041;-70
2022/04/09 10:46:09;;;;;;;8.15;0.88;;;8.10;99.90;;;;;;5052767;28;20498;-69
2022/04/09 10:48:40;;;;;;;2.92;1.35;;;8.00;99.90;;;;;;5052909;28;20045;-68
2022/04/09 10:51:08;;;;;;;11.10;1.77;;;8.00;99.90;;;;;;5052056;28;20044;-70
2022/04/09 10:53:35;;;;;;;4.25;0.80;;;8.10;99.90;;;;;;5052497;28;20040;-69
2022/04/09 10:56:17;;;;;;;6.63;0.95;;;8.20;99.90;;;;;;5053626;28;20060;-69
2022/04/09 10:59:13;;;;;;;4.80;1.00;;;8.40;99.90;;;;;;5052431;28;20120;-69
2022/04/09 11:01:47;;;;;;;9.65;2.05;;;8.60;99.90;;;;;;5051837;28;20052;-69
2022/04/09 11:04:37;;;;;;;4.85;0.82;;;8.60;99.90;;;;;;5053555;28;20044;-69
2022/04/09 11:07:10;;;;;;;2.85;0.90;;;8.70;99.90;;;;;;5053602;28;20052;-70
2022/04/09 11:09:59;;;;;;;5.53;0.60;;;8.70;99.90;;;;;;5052154;28;20053;-70
2022/04/09 11:12:28;;;;;;;2.58;0.55;;;8.60;96.10;;;;;;5053457;28;20033;-70
2022/04/09 11:15:02;;;;;;;2.95;0.60;;;8.60;95.00;;;;;;5053247;28;20402;-70
2022/04/09 11:17:37;;;;;;;10.80;1.77;;;8.60;93.80;;;;;;5052171;28;20044;-70
2022/04/09 11:20:11;;;;;;;4.93;0.98;;;8.60;93.30;;;;;;5053013;28;20044;-70
2022/04/09 11:22:42;;;;;;;7.43;2.47;;;8.60;94.30;;;;;;5053331;28;20120;-69
2022/04/09 11:25:19;;;;;;;5.57;1.10;;;8.60;95.50;;;;;;5053173;28;20045;-70
2022/04/09 11:27:44;;;;;;;5.93;1.20;;;8.70;98.30;;;;;;5053196;28;20041;-70
2022/04/09 11:30:10;;;;;;;6.70;1.40;;;8.80;97.80;;;;;;5052326;28;20045;-69
2022/04/09 11:32:36;;;;;;;9.15;1.60;;;8.80;99.00;;;;;;5052997;28;20072;-70
2022/04/09 11:35:10;;;;;;;5.45;1.58;;;8.80;98.90;;;;;;5052775;28;20056;-70
2022/04/09 11:37:44;;;;;;;6.63;1.23;;;8.60;98.20;;;;;;5052873;28;20116;-70
2022/04/09 11:40:12;;;;;;;5.32;1.17;;;8.50;96.70;;;;;;5052262;28;20456;-70
2022/04/09 11:42:44;;;;;;;6.78;1.52;;;8.50;98.50;;;;;;5053024;28;20048;-69
2022/04/09 11:45:36;;;;;;;5.97;1.17;;;8.40;97.40;;;;;;5051670;28;20549;-70
2022/04/09 11:48:02;;;;;;;11.32;1.83;;;8.60;96.90;;;;;;5050688;28;20048;-69
2022/04/09 11:50:31;;;;;;;8.45;1.13;;;8.80;95.50;;;;;;5052004;28;20502;-70
2022/04/09 11:53:07;;;;;;;8.50;1.35;;;8.80;94.30;;;;;;5052774;28;20040;-70
2022/04/09 11:55:33;;;;;;;4.30;1.33;;;8.80;96.50;;;;;;5052704;28;20036;-69
2022/04/09 11:57:58;;;;;;;9.98;0.98;;;8.70;97.40;;;;;;5052506;28;20517;-70
2022/04/09 12:00:27;;;;;;;5.13;1.25;;;8.60;98.30;;;;;;5052081;28;20037;-69
2022/04/09 12:02:53;;;;;;;4.72;1.00;;;8.50;99.20;;;;;;5050939;28;20040;-70
2022/04/09 12:05:25;;;;;;;6.18;1.67;;;8.40;97.40;;;;;;5109316;27;20380;-69
2022/04/09 12:07:51;;;;;;;9.07;1.33;;;8.40;96.20;;;;;;5109560;28;20458;-71
2022/04/09 12:10:25;;;;;;;6.53;1.85;;;8.60;97.90;;;;;;5109156;28;20067;-69
2022/04/09 12:12:57;;;;;;;7.68;1.35;;;8.70;95.60;;;;;;5095617;28;20082;-69
2022/04/09 12:15:31;;;;;;;9.85;2.03;;;8.60;93.90;;;;;;5088987;28;20040;-69
2022/04/09 12:17:57;;;;;;;7.47;1.10;;;8.40;94.80;;;;;;5087578;28;20544;-69
2022/04/09 12:20:37;;;;;;;8.80;1.35;;;8.30;96.80;;;;;;5088695;28;20128;-69
2022/04/09 12:23:05;;;;;;;8.95;2.13;;;8.20;96.40;;;;;;5088940;28;20037;-69
2022/04/09 12:25:39;;;;;;;6.85;1.17;;;8.20;99.30;;;;;;5087803;28;20555;-69
2022/04/09 12:28:24;;;;;;;5.13;1.27;;;8.50;99.90;;;;;;5089091;28;20089;-70
2022/04/09 12:30:51;;;;;;;5.50;2.10;;;8.80;99.90;;;;;;5087358;28;20048;-69
2022/04/09 12:33:18;;;;;;;7.70;1.27;;;9.00;99.80;;;;;;5088675;28;20068;-69
2022/04/09 12:35:44;;;;;;;5.80;1.10;;;8.80;98.60;;;;;;5087289;28;20425;-69
2022/04/09 12:38:09;;;;;;;11.45;1.60;;;8.70;98.20;;;;;;5088073;28;20090;-70
2022/04/09 12:40:37;;;;;;;8.27;1.10;;;8.80;95.90;;;;;;5088198;28;20090;-69
2022/04/09 12:43:30;;;;;;;6.18;1.10;;;8.80;92.30;;;;;;5088593;28;20460;-68
2022/04/09 12:46:03;;;;;;;2.95;1.23;;;8.80;91.50;;;;;;5093845;28;20089;-69
2022/04/09 12:48:40;;;;;;;3.92;0.95;;;8.70;92.60;;;;;;5108651;28;20050;-69
2022/04/09 12:51:06;;;;;;;6.45;1.70;;;8.70;92.50;;;;;;5108428;28;20047;-70
2022/04/09 12:53:32;;;;;;;6.75;1.08;;;8.80;94.00;;;;;;5108701;28;20036;-69
2022/04/09 12:55:57;;;;;;;5.13;1.33;;;8.90;94.20;;;;;;5108633;28;20551;-69